sensor_id;sensor_type;location;lat;lon;timestamp;temperature;humidity
31207;DHT22;17834;52.992;8.856;2022-08-19T00:01:26;15.90;99.90
31207;DHT22;17834;52.992;8.856;2022-08-19T00:03:55;15.90;99.90
31207;DHT22;17834;52.992;8.856;2022-08-19T00:06:21;16.00;99.90
31207;DHT22;17834;52.992;8.856;2022-08-19T00:08:46;16.00;99.90
31207;DHT22;17834;52.992;8.856;2022-08-19T00:11:13;16.10;99.90
31207;DHT22;17834;52.992;8.856;2022-08-19T00:13:39;16.10;99.90
31207;DHT22;17834;52.992;8.856;2022-08-19T00:16:06;16.20;99.90
31207;DHT22;17834;52.992;8.856;2022-08-19T00:18:33;16.30;99.90
31207;DHT22;17834;52.992;8.856;2022-08-19T00:20:59;16.30;99.90
31207;DHT22;17834;52.992;8.856;2022-08-19T00:23:25;16.40;99.90
31207;DHT22;17834;52.992;8.856;2022-08-19T00:25:51;16.40;99.90
31207;DHT22;17834;52.992;8.856;2022-08-19T00:28:18;16.40;99.90
31207;DHT22;17834;52.992;8.856;2022-08-19T00:30:44;16.50;99.90
31207;DHT22;17834;52.992;8.856;2022-08-19T00:33:10;16.50;99.90
31207;DHT22;17834;52.992;8.856;2022-08-19T00:35:36;16.60;99.90
31207;DHT22;17834;52.992;8.856;2022-08-19T00:38:04;16.60;99.90
31207;DHT22;17834;52.992;8.856;2022-08-19T00:40:32;16.70;99.90
31207;DHT22;17834;52.992;8.856;2022-08-19T00:42:58;16.70;99.90
31207;DHT22;17834;52.992;8.856;2022-08-19T00:45:26;16.70;99.90
31207;DHT22;17834;52.992;8.856;2022-08-19T00:47:53;16.80;99.90
31207;DHT22;17834;52.992;8.856;2022-08-19T00:50:20;16.80;99.90
31207;DHT22;17834;52.992;8.856;2022-08-19T00:52:49;16.80;99.90
31207;DHT22;17834;52.992;8.856;2022-08-19T00:55:19;16.80;99.90
31207;DHT22;17834;52.992;8.856;2022-08-19T00:57:55;16.90;99.90
31207;DHT22;17834;52.992;8.856;2022-08-19T01:00:23;16.90;99.90
31207;DHT22;17834;52.992;8.856;2022-08-19T01:02:50;16.90;99.90
31207;DHT22;17834;52.992;8.856;2022-08-19T01:05:21;17.00;99.90
31207;DHT22;17834;52.992;8.856;2022-08-19T01:07:48;17.00;99.90
31207;DHT22;17834;52.992;8.856;2022-08-19T01:10:19;17.00;99.90
31207;DHT22;17834;52.992;8.856;2022-08-19T01:12:46;17.00;99.90
31207;DHT22;17834;52.992;8.856;2022-08-19T01:15:16;17.10;99.90
31207;DHT22;17834;52.992;8.856;2022-08-19T01:17:43;17.10;99.90
31207;DHT22;17834;52.992;8.856;2022-08-19T01:20:13;17.10;99.90
31207;DHT22;17834;52.992;8.856;2022-08-19T01:22:46;17.10;99.90
31207;DHT22;17834;52.992;8.856;2022-08-19T01:25:14;17.10;99.90
31207;DHT22;17834;52.992;8.856;2022-08-19T01:27:44;17.10;99.90
31207;DHT22;17834;52.992;8.856;2022-08-19T01:30:18;17.20;99.90
31207;DHT22;17834;52.992;8.856;2022-08-19T01:32:44;17.10;99.90
31207;DHT22;17834;52.992;8.856;2022-08-19T01:35:11;17.20;99.90
31207;DHT22;17834;52.992;8.856;2022-08-19T01:37:49;17.10;99.90
31207;DHT22;17834;52.992;8.856;2022-08-19T01:40:15;17.20;99.90
31207;DHT22;17834;52.992;8.856;2022-08-19T01:42:41;17.20;99.90
31207;DHT22;17834;52.992;8.856;2022-08-19T01:45:07;17.20;99.90
31207;DHT22;17834;52.992;8.856;2022-08-19T01:47:36;17.10;99.90
31207;DHT22;17834;52.992;8.856;2022-08-19T01:50:03;17.20;99.90
31207;DHT22;17834;52.992;8.856;2022-08-19T01:52:28;17.20;99.90
31207;DHT22;17834;52.992;8.856;2022-08-19T01:54:54;17.20;99.90
31207;DHT22;17834;52.992;8.856;2022-08-19T01:57:20;17.20;99.90
31207;DHT22;17834;52.992;8.856;2022-08-19T01:59:46;17.20;99.90
31207;DHT22;17834;52.992;8.856;2022-08-19T02:02:12;17.20;99.90
31207;DHT22;17834;52.992;8.856;2022-08-19T02:04:38;17.10;99.90
31207;DHT22;17834;52.992;8.856;2022-08-19T02:07:04;17.00;99.90
31207;DHT22;17834;52.992;8.856;2022-08-19T02:09:31;17.00;99.90
31207;DHT22;17834;52.992;8.856;2022-08-19T02:11:57;16.90;99.90
31207;DHT22;17834;52.992;8.856;2022-08-19T02:14:23;16.80;99.90
31207;DHT22;17834;52.992;8.856;2022-08-19T02:16:49;16.70;99.90
31207;DHT22;17834;52.992;8.856;2022-08-19T02:19:15;16.60;99.90
31207;DHT22;17834;52.992;8.856;2022-08-19T02:21:41;16.50;99.90
31207;DHT22;17834;52.992;8.856;2022-08-19T02:24:06;16.40;99.90
31207;DHT22;17834;52.992;8.856;2022-08-19T02:26:32;16.30;99.90
31207;DHT22;17834;52.992;8.856;2022-08-19T02:28:58;16.20;99.90
31207;DHT22;17834;52.992;8.856;2022-08-19T02:31:26;16.10;99.90
31207;DHT22;17834;52.992;8.856;2022-08-19T02:33:54;16.00;99.90
31207;DHT22;17834;52.992;8.856;2022-08-19T02:36:20;16.00;99.90
31207;DHT22;17834;52.992;8.856;2022-08-19T02:38:47;15.90;99.90
31207;DHT22;17834;52.992;8.856;2022-08-19T02:41:20;15.90;99.90
31207;DHT22;17834;52.992;8.856;2022-08-19T02:43:47;15.80;99.90
31207;DHT22;17834;52.992;8.856;2022-08-19T02:46:15;15.80;99.90
31207;DHT22;17834;52.992;8.856;2022-08-19T02:48:43;15.70;99.90
31207;DHT22;17834;52.992;8.856;2022-08-19T02:51:19;15.70;99.90
31207;DHT22;17834;52.992;8.856;2022-08-19T02:53:45;15.60;99.90
31207;DHT22;17834;52.992;8.856;2022-08-19T02:56:11;15.50;99.90
31207;DHT22;17834;52.992;8.856;2022-08-19T02:58:37;15.50;99.90
31207;DHT22;17834;52.992;8.856;2022-08-19T03:01:03;15.40;99.90
31207;DHT22;17834;52.992;8.856;2022-08-19T03:03:29;15.40;99.90
31207;DHT22;17834;52.992;8.856;2022-08-19T03:06:06;15.40;99.90
31207;DHT22;17834;52.992;8.856;2022-08-19T03:08:32;15.40;99.90
31207;DHT22;17834;52.992;8.856;2022-08-19T03:10:58;15.50;99.90
31207;DHT22;17834;52.992;8.856;2022-08-19T03:13:23;15.60;99.90
31207;DHT22;17834;52.992;8.856;2022-08-19T03:15:49;15.50;99.90
31207;DHT22;17834;52.992;8.856;2022-08-19T03:18:15;15.50;99.90
31207;DHT22;17834;52.992;8.856;2022-08-19T03:20:48;15.60;99.90
31207;DHT22;17834;52.992;8.856;2022-08-19T03:23:15;15.60;99.90
31207;DHT22;17834;52.992;8.856;2022-08-19T03:25:43;15.60;99.90
31207;DHT22;17834;52.992;8.856;2022-08-19T03:28:13;15.70;99.90
31207;DHT22;17834;52.992;8.856;2022-08-19T03:30:40;15.70;99.90
31207;DHT22;17834;52.992;8.856;2022-08-19T03:33:07;15.60;99.90
31207;DHT22;17834;52.992;8.856;2022-08-19T03:35:33;15.50;99.90
31207;DHT22;17834;52.992;8.856;2022-08-19T03:38:00;15.40;99.90
31207;DHT22;17834;52.992;8.856;2022-08-19T03:40:26;15.40;99.90
31207;DHT22;17834;52.992;8.856;2022-08-19T03:42:51;15.40;99.90
31207;DHT22;17834;52.992;8.856;2022-08-19T03:45:17;15.20;99.90
31207;DHT22;17834;52.992;8.856;2022-08-19T03:47:43;15.20;99.90
31207;DHT22;17834;52.992;8.856;2022-08-19T03:50:08;15.20;99.90
31207;DHT22;17834;52.992;8.856;2022-08-19T03:52:34;15.20;99.90
31207;DHT22;17834;52.992;8.856;2022-08-19T03:55:02;15.20;99.90
31207;DHT22;17834;52.992;8.856;2022-08-19T03:57:28;15.20;99.90
31207;DHT22;17834;52.992;8.856;2022-08-19T03:59:53;15.10;99.90
31207;DHT22;17834;52.992;8.856;2022-08-19T04:02:19;15.10;99.90
31207;DHT22;17834;52.992;8.856;2022-08-19T04:04:45;15.10;99.90
31207;DHT22;17834;52.992;8.856;2022-08-19T04:07:13;15.00;99.90
31207;DHT22;17834;52.992;8.856;2022-08-19T04:09:41;14.90;99.90
31207;DHT22;17834;52.992;8.856;2022-08-19T04:12:07;15.00;99.90
31207;DHT22;17834;52.992;8.856;2022-08-19T04:14:34;14.90;99.90
31207;DHT22;17834;52.992;8.856;2022-08-19T04:17:00;15.00;99.90
31207;DHT22;17834;52.992;8.856;2022-08-19T04:19:28;14.90;99.90
31207;DHT22;17834;52.992;8.856;2022-08-19T04:21:54;14.90;99.90
31207;DHT22;17834;52.992;8.856;2022-08-19T04:24:21;14.90;99.90
31207;DHT22;17834;52.992;8.856;2022-08-19T04:26:47;14.90;99.90
31207;DHT22;17834;52.992;8.856;2022-08-19T04:29:19;14.90;99.90
31207;DHT22;17834;52.992;8.856;2022-08-19T04:31:47;14.80;99.90
31207;DHT22;17834;52.992;8.856;2022-08-19T04:34:16;14.90;99.90
31207;DHT22;17834;52.992;8.856;2022-08-19T04:36:42;14.90;99.90
31207;DHT22;17834;52.992;8.856;2022-08-19T04:39:15;14.90;99.90
31207;DHT22;17834;52.992;8.856;2022-08-19T04:41:42;14.90;99.90
31207;DHT22;17834;52.992;8.856;2022-08-19T04:44:26;14.90;99.90
31207;DHT22;17834;52.992;8.856;2022-08-19T04:46:56;14.90;99.90
31207;DHT22;17834;52.992;8.856;2022-08-19T04:49:22;15.00;99.90
31207;DHT22;17834;52.992;8.856;2022-08-19T04:51:49;15.10;99.90
31207;DHT22;17834;52.992;8.856;2022-08-19T04:54:18;15.00;99.90
31207;DHT22;17834;52.992;8.856;2022-08-19T04:56:48;15.10;99.90
31207;DHT22;17834;52.992;8.856;2022-08-19T04:59:15;15.00;99.90
31207;DHT22;17834;52.992;8.856;2022-08-19T05:01:42;15.00;99.90
31207;DHT22;17834;52.992;8.856;2022-08-19T05:04:08;15.10;99.90
31207;DHT22;17834;52.992;8.856;2022-08-19T05:06:34;15.10;99.90
31207;DHT22;17834;52.992;8.856;2022-08-19T05:09:02;15.20;99.90
31207;DHT22;17834;52.992;8.856;2022-08-19T05:11:31;15.30;99.90
31207;DHT22;17834;52.992;8.856;2022-08-19T05:13:57;15.30;99.90
31207;DHT22;17834;52.992;8.856;2022-08-19T05:16:24;15.30;99.90
31207;DHT22;17834;52.992;8.856;2022-08-19T05:18:50;15.40;99.90
31207;DHT22;17834;52.992;8.856;2022-08-19T05:21:34;15.40;99.90
31207;DHT22;17834;52.992;8.856;2022-08-19T05:24:20;15.50;99.90
31207;DHT22;17834;52.992;8.856;2022-08-19T05:26:48;15.60;99.90
31207;DHT22;17834;52.992;8.856;2022-08-19T05:29:16;15.60;99.90
31207;DHT22;17834;52.992;8.856;2022-08-19T05:31:43;15.70;99.90
31207;DHT22;17834;52.992;8.856;2022-08-19T05:34:09;15.70;99.90
31207;DHT22;17834;52.992;8.856;2022-08-19T05:36:41;15.70;99.90
31207;DHT22;17834;52.992;8.856;2022-08-19T05:39:09;15.80;99.90
31207;DHT22;17834;52.992;8.856;2022-08-19T05:41:37;15.80;99.90
31207;DHT22;17834;52.992;8.856;2022-08-19T05:44:05;15.70;99.90
31207;DHT22;17834;52.992;8.856;2022-08-19T05:46:34;15.80;99.90
31207;DHT22;17834;52.992;8.856;2022-08-19T22:48:27;18.30;99.90
31207;DHT22;17834;52.992;8.856;2022-08-19T22:50:53;18.40;99.90
31207;DHT22;17834;52.992;8.856;2022-08-19T22:53:45;18.50;99.90
31207;DHT22;17834;52.992;8.856;2022-08-19T22:56:13;18.50;99.90
31207;DHT22;17834;52.992;8.856;2022-08-19T22:58:38;18.40;99.90
31207;DHT22;17834;52.992;8.856;2022-08-19T23:01:04;18.50;99.90
31207;DHT22;17834;52.992;8.856;2022-08-19T23:03:30;18.60;99.90
31207;DHT22;17834;52.992;8.856;2022-08-19T23:05:57;18.50;99.90
31207;DHT22;17834;52.992;8.856;2022-08-19T23:08:23;18.50;99.90
31207;DHT22;17834;52.992;8.856;2022-08-19T23:10:49;18.40;99.90
31207;DHT22;17834;52.992;8.856;2022-08-19T23:13:15;18.40;99.90
31207;DHT22;17834;52.992;8.856;2022-08-19T23:15:42;18.40;99.90
31207;DHT22;17834;52.992;8.856;2022-08-19T23:18:08;18.40;99.90
31207;DHT22;17834;52.992;8.856;2022-08-19T23:20:36;18.50;99.90
31207;DHT22;17834;52.992;8.856;2022-08-19T23:23:05;18.40;99.90
31207;DHT22;17834;52.992;8.856;2022-08-19T23:25:32;18.50;99.90
31207;DHT22;17834;52.992;8.856;2022-08-19T23:27:58;18.60;99.90
31207;DHT22;17834;52.992;8.856;2022-08-19T23:30:44;18.70;99.90
31207;DHT22;17834;52.992;8.856;2022-08-19T23:33:40;18.60;99.90
31207;DHT22;17834;52.992;8.856;2022-08-19T23:36:11;18.60;99.90
31207;DHT22;17834;52.992;8.856;2022-08-19T23:38:40;18.70;99.90
31207;DHT22;17834;52.992;8.856;2022-08-19T23:41:08;18.60;99.90
31207;DHT22;17834;52.992;8.856;2022-08-19T23:43:35;18.60;99.90
31207;DHT22;17834;52.992;8.856;2022-08-19T23:46:02;18.60;99.90
31207;DHT22;17834;52.992;8.856;2022-08-19T23:48:29;18.50;99.90
31207;DHT22;17834;52.992;8.856;2022-08-19T23:50:58;18.50;99.90
31207;DHT22;17834;52.992;8.856;2022-08-19T23:53:25;18.50;99.90
31207;DHT22;17834;52.992;8.856;2022-08-19T23:55:51;18.60;99.90
31207;DHT22;17834;52.992;8.856;2022-08-19T23:58:17;18.60;99.90
